createdAt,value
2022-09-24T00:01:18.290Z,17.19
2022-09-24T00:03:50.521Z,17.22
2022-09-24T00:06:20.893Z,17.14
2022-09-24T00:08:50.001Z,17.37
2022-09-24T00:11:18.024Z,17.26
2022-09-24T00:13:44.517Z,17.13
2022-09-24T00:16:13.067Z,16.97
2022-09-24T00:18:40.214Z,17.29
2022-09-24T00:21:15.427Z,17.15
2022-09-24T00:23:42.335Z,17.42
2022-09-24T00:26:29.594Z,17.17
2022-09-24T00:28:56.469Z,17.37
2022-09-24T00:31:23.425Z,17.48
2022-09-24T00:33:52.260Z,17.05
2022-09-24T00:36:20.726Z,17.23
2022-09-24T00:38:52.024Z,17.31
2022-09-24T00:41:20.314Z,17.55
2022-09-24T00:43:48.460Z,17.40
2022-09-24T00:46:20.194Z,17.53
2022-09-24T00:48:47.715Z,17.36
2022-09-24T00:51:16.979Z,17.34
2022-09-24T00:53:44.830Z,17.14
2022-09-24T00:56:15.537Z,17.14
2022-09-24T00:58:45.831Z,17.16
2022-09-24T01:01:12.428Z,17.10
2022-09-24T01:03:40.943Z,16.93
2022-09-24T01:06:08.637Z,17.24
2022-09-24T01:08:35.051Z,17.47
2022-09-24T01:11:25.331Z,17.17
2022-09-24T01:14:32.910Z,17.40
2022-09-24T01:17:24.397Z,17.54
2022-09-24T01:20:09.667Z,17.31
2022-09-24T01:22:36.054Z,17.42
2022-09-24T01:25:13.315Z,17.56
2022-09-24T01:28:09.188Z,17.74
2022-09-24T01:30:38.242Z,17.67
2022-09-24T01:33:08.645Z,17.32
2022-09-24T01:35:37.677Z,17.75
2022-09-24T01:38:08.725Z,17.50
2022-09-24T01:40:37.235Z,17.81
2022-09-24T01:43:05.339Z,17.75
2022-09-24T01:45:32.418Z,17.65
2022-09-24T01:48:02.941Z,17.68
2022-09-24T01:50:33.630Z,17.80
2022-09-24T01:53:03.871Z,17.81
2022-09-24T01:55:35.067Z,17.72
2022-09-24T01:58:11.790Z,17.79
2022-09-24T02:00:40.195Z,17.54
2022-09-24T02:03:22.778Z,17.29
2022-09-24T02:05:59.451Z,17.55
2022-09-24T02:08:56.133Z,17.51
2022-09-24T02:11:24.263Z,17.57
2022-09-24T02:14:13.418Z,17.60
2022-09-24T02:16:45.438Z,17.53
2022-09-24T02:19:14.532Z,17.74
2022-09-24T02:21:43.233Z,17.69
2022-09-24T02:24:17.176Z,17.72
2022-09-24T02:26:43.923Z,17.62
2022-09-24T02:29:11.062Z,17.50
2022-09-24T02:31:40.653Z,17.60
2022-09-24T02:34:22.620Z,17.61
2022-09-24T02:36:55.422Z,17.69
2022-09-24T02:39:22.061Z,17.56
2022-09-24T02:41:49.534Z,17.59
2022-09-24T02:44:16.935Z,17.56
2022-09-24T02:46:44.401Z,16.99
2022-09-24T02:49:11.065Z,17.42
2022-09-24T02:51:37.642Z,17.60
2022-09-24T02:54:04.631Z,17.73
2022-09-24T02:56:31.463Z,17.18
2022-09-24T02:58:58.823Z,16.64
2022-09-24T03:01:25.766Z,16.49
2022-09-24T03:03:52.300Z,15.61
2022-09-24T03:06:19.160Z,15.62
2022-09-24T03:08:45.774Z,15.75
2022-09-24T03:11:17.837Z,15.61
2022-09-24T03:13:45.165Z,15.85
2022-09-24T03:16:11.922Z,15.97
2022-09-24T03:18:38.466Z,15.89
2022-09-24T03:21:08.511Z,15.72
2022-09-24T03:23:35.841Z,15.61
2022-09-24T03:26:02.878Z,15.54
2022-09-24T03:28:29.502Z,15.69
2022-09-24T03:31:02.521Z,16.12
2022-09-24T03:33:49.280Z,15.86
2022-09-24T03:36:22.114Z,16.16
2022-09-24T03:38:50.571Z,15.62
2022-09-24T03:41:17.649Z,15.96
2022-09-24T03:43:44.488Z,15.75
2022-09-24T03:46:12.534Z,16.05
2022-09-24T03:48:40.707Z,16.21
2022-09-24T03:51:12.725Z,16.38
2022-09-24T03:53:39.672Z,16.20
2022-09-24T03:56:07.278Z,16.34
2022-09-24T03:58:37.877Z,16.23
2022-09-24T04:01:06.053Z,16.70
2022-09-24T04:03:32.762Z,16.55
2022-09-24T04:05:59.277Z,16.65
2022-09-24T04:08:26.096Z,16.51
2022-09-24T04:10:52.774Z,16.59
2022-09-24T04:13:19.602Z,16.63
2022-09-24T04:15:46.584Z,16.70
2022-09-24T04:18:13.176Z,16.60
2022-09-24T04:20:39.776Z,16.58
2022-09-24T04:23:06.252Z,16.69
2022-09-24T04:25:33.138Z,16.39
2022-09-24T04:28:05.013Z,16.35
2022-09-24T04:30:33.029Z,16.19
2022-09-24T04:33:03.079Z,16.15
2022-09-24T04:35:30.987Z,16.17
2022-09-24T04:37:58.997Z,16.07
2022-09-24T04:40:26.531Z,15.75
2022-09-24T04:42:53.458Z,15.44
2022-09-24T04:45:20.916Z,15.12
2022-09-24T04:47:52.528Z,15.46
2022-09-24T04:50:20.189Z,15.35
2022-09-24T04:52:46.771Z,15.21
2022-09-24T04:55:13.504Z,15.52
2022-09-24T04:57:41.200Z,15.40
2022-09-24T05:00:09.679Z,15.56
2022-09-24T05:02:36.227Z,15.41
2022-09-24T05:05:03.534Z,15.65
2022-09-24T05:07:30.066Z,15.69
2022-09-24T05:09:57.607Z,15.29
2022-09-24T05:12:24.109Z,15.60
2022-09-24T05:14:50.744Z,15.50
2022-09-24T05:17:17.477Z,15.71
2022-09-24T05:19:44.224Z,15.66
2022-09-24T05:22:11.217Z,15.77
2022-09-24T05:24:37.727Z,15.83
2022-09-24T05:27:10.255Z,16.07
2022-09-24T05:29:41.288Z,16.12
2022-09-24T05:32:12.945Z,16.29
2022-09-24T05:34:41.366Z,16.12
2022-09-24T05:37:09.538Z,16.24
2022-09-24T05:39:36.071Z,16.44
2022-09-24T05:42:05.444Z,16.36
2022-09-24T05:44:32.192Z,16.40
2022-09-24T05:46:59.446Z,16.30
2022-09-24T05:49:26.297Z,16.47
2022-09-24T05:51:52.755Z,16.36
2022-09-24T05:54:19.727Z,16.11
2022-09-24T05:56:46.654Z,16.38
2022-09-24T05:59:13.355Z,16.48
2022-09-24T06:01:40.229Z,16.45
2022-09-24T06:04:09.202Z,16.70
2022-09-24T06:06:35.909Z,16.73
2022-09-24T06:09:02.588Z,16.81
2022-09-24T06:11:39.795Z,16.89
2022-09-24T06:14:06.845Z,16.82
2022-09-24T06:16:34.198Z,16.88
2022-09-24T06:19:01.001Z,17.07
2022-09-24T06:21:28.221Z,17.14
2022-09-24T06:23:54.961Z,17.48
2022-09-24T06:26:21.751Z,17.39
2022-09-24T06:28:48.295Z,17.65
2022-09-24T06:31:14.957Z,17.47
2022-09-24T06:33:42.464Z,17.62
2022-09-24T06:36:09.134Z,17.48
2022-09-24T06:38:35.745Z,17.80
2022-09-24T06:41:05.024Z,17.81
2022-09-24T06:43:32.343Z,17.90
2022-09-24T06:45:59.718Z,17.89
2022-09-24T06:48:27.132Z,17.87
2022-09-24T06:50:54.756Z,17.77
2022-09-24T06:53:21.546Z,17.81
2022-09-24T06:55:49.088Z,17.41
2022-09-24T06:58:20.925Z,17.84
2022-09-24T07:00:55.358Z,17.87
2022-09-24T07:03:22.290Z,18.09
2022-09-24T07:05:48.754Z,17.99
2022-09-24T07:08:15.435Z,17.64
2022-09-24T07:10:43.306Z,17.78
2022-09-24T07:13:09.974Z,18.04
2022-09-24T07:15:36.514Z,18.14
2022-09-24T07:18:03.604Z,18.04
2022-09-24T07:20:30.280Z,18.52
2022-09-24T07:22:56.852Z,18.45
2022-09-24T07:25:23.360Z,18.54
2022-09-24T07:27:50.119Z,19.08
2022-09-24T07:30:17.300Z,19.54
2022-09-24T07:32:43.911Z,19.53
2022-09-24T07:35:10.450Z,20.08
2022-09-24T07:37:37.134Z,20.10
2022-09-24T07:40:03.977Z,20.38
2022-09-24T07:42:30.496Z,20.25
2022-09-24T07:44:57.126Z,20.52
2022-09-24T07:47:23.727Z,20.23
2022-09-24T07:49:50.302Z,20.37
2022-09-24T07:52:16.785Z,20.56
2022-09-24T07:54:43.275Z,20.58
2022-09-24T07:57:14.680Z,20.20
2022-09-24T07:59:41.684Z,20.38
2022-09-24T08:02:16.613Z,20.21
2022-09-24T08:04:44.029Z,19.39
2022-09-24T08:07:12.149Z,19.82
2022-09-24T08:09:39.195Z,19.18
2022-09-24T08:12:06.388Z,19.22
2022-09-24T08:14:32.981Z,19.08
2022-09-24T08:16:59.552Z,19.45
2022-09-24T08:19:26.006Z,19.31
2022-09-24T08:21:53.816Z,19.83
2022-09-24T08:24:20.266Z,20.24
2022-09-24T08:26:46.729Z,19.97
2022-09-24T08:29:13.252Z,19.91
2022-09-24T08:31:41.439Z,19.22
2022-09-24T08:34:08.142Z,19.20
2022-09-24T08:36:35.941Z,19.30
2022-09-24T08:39:04.120Z,18.82
2022-09-24T08:41:39.904Z,19.60
2022-09-24T08:44:37.750Z,20.01
2022-09-24T08:47:23.281Z,20.39
2022-09-24T08:50:17.436Z,19.62
2022-09-24T08:52:43.959Z,20.16
2022-09-24T08:55:15.383Z,20.27
2022-09-24T08:57:55.646Z,20.74
2022-09-24T09:00:22.130Z,20.58
2022-09-24T09:03:00.992Z,20.21
2022-09-24T09:05:52.945Z,20.92
2022-09-24T09:08:54.591Z,21.17
2022-09-24T09:11:15.376Z,21.26
2022-09-24T09:13:57.558Z,21.37
2022-09-24T09:16:35.863Z,21.98
2022-09-24T09:19:06.743Z,21.22
2022-09-24T09:21:46.204Z,21.49
2022-09-24T09:24:17.836Z,21.54
2022-09-24T09:26:50.952Z,21.95
2022-09-24T09:29:17.574Z,22.23
2022-09-24T09:31:56.329Z,21.81
2022-09-24T09:34:48.640Z,22.03
2022-09-24T09:37:37.299Z,21.85
2022-09-24T09:40:31.577Z,20.99
2022-09-24T09:43:03.971Z,21.15
2022-09-24T09:46:01.621Z,21.26
2022-09-24T09:48:47.825Z,20.85
2022-09-24T09:51:22.706Z,21.04
2022-09-24T09:54:06.509Z,20.32
2022-09-24T09:56:41.484Z,20.85
2022-09-24T09:59:11.051Z,21.05
2022-09-24T10:01:42.480Z,21.76
2022-09-24T10:04:21.412Z,22.14
2022-09-24T10:06:47.946Z,21.83
2022-09-24T10:09:20.680Z,22.05
2022-09-24T10:11:47.756Z,22.13
2022-09-24T10:14:16.908Z,21.69
2022-09-24T10:16:46.011Z,21.12
2022-09-24T10:19:20.774Z,21.43
2022-09-24T10:21:47.356Z,21.39
2022-09-24T10:24:20.264Z,21.91
2022-09-24T10:26:47.762Z,21.60
2022-09-24T10:29:39.959Z,21.29
2022-09-24T10:32:07.388Z,20.87
2022-09-24T10:34:33.943Z,20.82
2022-09-24T10:37:14.898Z,21.36
2022-09-24T10:39:41.603Z,21.90
2022-09-24T10:42:25.169Z,22.15
2022-09-24T10:44:55.653Z,21.79
2022-09-24T10:47:34.811Z,22.37
2022-09-24T10:50:22.097Z,21.83
2022-09-24T10:53:00.676Z,22.15
2022-09-24T10:55:37.128Z,22.01
2022-09-24T10:58:15.776Z,22.67
2022-09-24T11:00:52.184Z,22.61
2022-09-24T11:03:27.430Z,22.92
2022-09-24T11:06:00.860Z,23.23
2022-09-24T11:08:52.063Z,22.65
2022-09-24T11:11:34.297Z,22.90
2022-09-24T11:14:39.571Z,22.82
2022-09-24T11:17:24.462Z,22.92
2022-09-24T11:19:56.834Z,23.38
2022-09-24T11:22:33.911Z,22.95
2022-09-24T11:25:22.510Z,23.30
2022-09-24T11:27:52.107Z,21.86
2022-09-24T11:30:24.895Z,22.21
2022-09-24T11:33:29.890Z,21.37
2022-09-24T11:36:20.946Z,21.46
2022-09-24T11:39:05.467Z,21.57
2022-09-24T11:41:44.718Z,21.34
2022-09-24T11:44:27.103Z,21.95
2022-09-24T11:47:09.947Z,22.54
2022-09-24T11:49:46.293Z,22.35
2022-09-24T11:52:31.813Z,21.38
2022-09-24T11:55:18.163Z,22.15
2022-09-24T11:57:56.843Z,22.81
2022-09-24T12:00:24.102Z,23.21
2022-09-24T12:03:04.675Z,22.46
2022-09-24T12:05:41.625Z,23.02
2022-09-24T12:08:30.206Z,22.91
2022-09-24T12:11:15.486Z,22.43
2022-09-24T12:13:46.972Z,22.38
2022-09-24T12:16:19.586Z,22.23
2022-09-24T12:19:01.455Z,22.18
2022-09-24T12:21:33.501Z,21.66
2022-09-24T12:24:09.419Z,21.43
2022-09-24T12:26:37.784Z,20.88
2022-09-24T12:29:41.265Z,20.88
2022-09-24T12:32:53.619Z,21.04
2022-09-24T12:35:26.053Z,21.06
2022-09-24T12:37:58.101Z,21.45
2022-09-24T12:40:40.013Z,21.70
2022-09-24T12:43:25.131Z,21.93
2022-09-24T12:46:06.370Z,22.19
2022-09-24T12:48:37.761Z,22.50
2022-09-24T12:51:06.881Z,22.77
2022-09-24T12:53:39.036Z,22.77
2022-09-24T12:56:06.695Z,22.81
2022-09-24T12:58:41.061Z,22.90
2022-09-24T13:01:22.998Z,22.91
2022-09-24T13:04:05.724Z,22.88
2022-09-24T13:06:37.292Z,22.75
2022-09-24T13:09:26.018Z,22.55
2022-09-24T13:12:18.195Z,22.16
2022-09-24T13:15:06.663Z,22.01
2022-09-24T13:17:34.765Z,21.75
2022-09-24T13:20:07.171Z,21.25
2022-09-24T13:22:36.516Z,20.50
2022-09-24T13:25:09.165Z,20.58
2022-09-24T13:27:41.559Z,20.36
2022-09-24T13:30:23.163Z,20.39
2022-09-24T13:33:04.529Z,20.06
2022-09-24T13:35:35.106Z,20.09
2022-09-24T13:38:20.342Z,20.25
2022-09-24T13:40:52.583Z,20.02
2022-09-24T13:43:37.246Z,20.23
2022-09-24T13:46:07.772Z,20.15
2022-09-24T13:48:38.091Z,20.04
2022-09-24T13:51:07.268Z,19.83
2022-09-24T13:53:54.581Z,19.70
2022-09-24T13:56:21.356Z,19.46
2022-09-24T13:58:51.127Z,19.86
2022-09-24T14:01:24.582Z,19.86
2022-09-24T14:03:56.574Z,20.08
2022-09-24T14:06:38.594Z,20.20
2022-09-24T14:09:28.034Z,20.25
2022-09-24T14:11:58.039Z,20.45
2022-09-24T14:14:27.823Z,20.31
2022-09-24T14:17:06.202Z,20.49
2022-09-24T14:19:34.585Z,20.28
2022-09-24T14:22:02.043Z,19.87
2022-09-24T14:24:35.715Z,19.82
2022-09-24T14:27:05.809Z,19.64
2022-09-24T14:30:05.052Z,19.61
2022-09-24T14:32:33.950Z,19.55
2022-09-24T14:35:09.403Z,19.71
2022-09-24T14:37:38.461Z,19.92
2022-09-24T14:40:14.043Z,19.84
2022-09-24T14:42:46.735Z,20.07
2022-09-24T14:45:25.980Z,20.13
2022-09-24T14:48:03.692Z,19.84
2022-09-24T14:50:30.216Z,20.07
2022-09-24T14:52:57.407Z,20.02
2022-09-24T14:55:37.254Z,20.22
2022-09-24T14:58:04.075Z,20.35
2022-09-24T15:00:37.838Z,20.60
2022-09-24T15:03:07.883Z,20.60
2022-09-24T15:05:34.939Z,20.79
2022-09-24T15:08:24.747Z,20.70
2022-09-24T15:10:55.638Z,20.53
2022-09-24T15:13:32.336Z,20.80
2022-09-24T15:16:15.150Z,21.02
2022-09-24T15:18:41.715Z,21.12
2022-09-24T15:21:11.000Z,21.10
2022-09-24T15:23:37.591Z,20.87
2022-09-24T15:26:04.428Z,21.06
2022-09-24T15:28:31.329Z,20.68
2022-09-24T15:30:57.866Z,20.86
2022-09-24T15:33:24.440Z,20.77
2022-09-24T15:35:51.118Z,20.63
2022-09-24T15:38:19.003Z,20.01
2022-09-24T15:40:46.127Z,20.18
2022-09-24T15:43:18.528Z,19.88
2022-09-24T15:45:45.137Z,19.62
2022-09-24T15:48:11.677Z,19.30
2022-09-24T15:50:40.616Z,19.20
2022-09-24T15:53:08.061Z,19.09
2022-09-24T15:55:36.271Z,19.08
2022-09-24T15:58:02.809Z,19.01
2022-09-24T16:00:29.326Z,18.82
2022-09-24T16:02:57.384Z,19.03
2022-09-24T16:05:24.371Z,18.84
2022-09-24T16:07:51.018Z,18.69
2022-09-24T16:10:17.942Z,18.67
2022-09-24T16:12:44.645Z,18.28
2022-09-24T16:15:15.843Z,18.22
2022-09-24T16:17:43.237Z,17.95
2022-09-24T16:20:10.459Z,17.62
2022-09-24T16:22:37.029Z,17.75
2022-09-24T16:25:04.859Z,18.04
2022-09-24T16:27:31.506Z,18.28
2022-09-24T16:29:58.189Z,18.13
2022-09-24T16:32:24.850Z,18.25
2022-09-24T16:34:54.714Z,18.18
2022-09-24T16:37:21.379Z,17.88
2022-09-24T16:39:48.152Z,17.93
2022-09-24T16:42:14.727Z,18.08
2022-09-24T16:44:41.207Z,17.74
2022-09-24T16:47:07.752Z,17.77
2022-09-24T16:49:34.825Z,17.88
2022-09-24T16:52:01.645Z,17.95
2022-09-24T16:54:29.588Z,17.82
2022-09-24T16:56:57.483Z,17.80
2022-09-24T16:59:24.014Z,17.93
2022-09-24T17:01:50.715Z,17.92
2022-09-24T17:04:17.305Z,18.01
2022-09-24T17:06:45.090Z,17.89
2022-09-24T17:09:30.459Z,17.92
2022-09-24T17:11:57.193Z,17.81
2022-09-24T17:14:24.315Z,17.93
2022-09-24T17:16:50.907Z,17.73
2022-09-24T17:19:18.412Z,17.74
2022-09-24T17:21:50.370Z,17.15
2022-09-24T17:24:21.395Z,17.42
2022-09-24T17:26:48.721Z,17.23
2022-09-24T17:29:15.260Z,17.30
2022-09-24T17:31:41.836Z,17.40
2022-09-24T17:34:12.454Z,17.50
2022-09-24T17:36:38.972Z,17.42
2022-09-24T17:39:06.376Z,17.74
2022-09-24T17:41:33.847Z,17.56
2022-09-24T17:44:00.726Z,17.89
2022-09-24T17:46:29.123Z,17.96
2022-09-24T17:48:58.026Z,17.56
2022-09-24T17:51:25.905Z,17.70
2022-09-24T17:53:54.094Z,17.67
2022-09-24T17:56:22.961Z,17.92
2022-09-24T17:58:50.279Z,17.93
2022-09-24T18:01:19.839Z,18.13
2022-09-24T18:03:46.716Z,18.14
2022-09-24T18:06:14.869Z,18.14
2022-09-24T18:08:45.478Z,18.10
2022-09-24T18:11:18.443Z,18.21
2022-09-24T18:13:45.399Z,18.23
2022-09-24T18:16:14.988Z,18.23
2022-09-24T18:18:42.936Z,18.24
2022-09-24T18:21:11.808Z,18.19
2022-09-24T18:23:39.221Z,18.01
2022-09-24T18:26:20.445Z,18.04
2022-09-24T18:28:52.853Z,18.03
2022-09-24T18:31:21.154Z,17.91
2022-09-24T18:33:49.487Z,18.06
2022-09-24T18:36:18.289Z,18.05
2022-09-24T18:38:45.149Z,18.10
2022-09-24T18:41:14.618Z,17.71
2022-09-24T18:43:42.149Z,17.96
2022-09-24T18:46:11.385Z,17.77
2022-09-24T18:48:39.707Z,17.85
2022-09-24T18:51:07.197Z,17.97
2022-09-24T18:53:35.294Z,18.12
2022-09-24T18:56:06.617Z,17.71
2022-09-24T18:58:33.209Z,17.66
2022-09-24T19:01:04.629Z,17.69
2022-09-24T19:03:31.672Z,17.87
2022-09-24T19:06:04.199Z,17.85
2022-09-24T19:08:32.134Z,17.94
2022-09-24T19:11:04.740Z,17.96
2022-09-24T19:13:31.924Z,17.96
2022-09-24T19:16:03.367Z,18.01
2022-09-24T19:18:29.953Z,18.08
2022-09-24T19:20:56.984Z,18.13
2022-09-24T19:23:23.760Z,17.88
2022-09-24T19:25:50.280Z,17.68
2022-09-24T19:28:17.056Z,17.35
2022-09-24T19:30:45.315Z,17.63
2022-09-24T19:33:15.817Z,17.84
2022-09-24T19:35:47.162Z,17.70
2022-09-24T19:38:16.601Z,17.89
2022-09-24T19:40:43.300Z,17.91
2022-09-24T19:43:09.935Z,17.61
2022-09-24T19:45:37.207Z,17.70
2022-09-24T19:48:04.052Z,17.69
2022-09-24T19:50:34.273Z,17.28
2022-09-24T19:53:00.760Z,17.24
2022-09-24T19:55:28.790Z,17.19
2022-09-24T19:57:56.349Z,17.21
2022-09-24T20:00:24.961Z,17.55
2022-09-24T20:02:52.387Z,17.58
2022-09-24T20:05:18.922Z,17.71
2022-09-24T20:07:46.400Z,17.57
2022-09-24T20:10:15.787Z,17.27
2022-09-24T20:12:46.487Z,17.63
2022-09-24T20:15:13.301Z,17.63
2022-09-24T20:17:39.788Z,17.61
2022-09-24T20:20:07.163Z,17.84
2022-09-24T20:22:33.685Z,17.69
2022-09-24T20:25:00.249Z,17.42
2022-09-24T20:27:45.827Z,17.55
2022-09-24T20:30:12.952Z,17.47
2022-09-24T20:32:44.152Z,17.50
2022-09-24T20:35:11.090Z,17.39
2022-09-24T20:37:38.334Z,17.58
2022-09-24T20:40:08.925Z,17.70
2022-09-24T20:42:38.823Z,17.47
2022-09-24T20:45:09.001Z,17.44
2022-09-24T20:47:37.968Z,17.38
2022-09-24T20:50:05.068Z,17.70
2022-09-24T20:52:34.601Z,17.56
2022-09-24T20:55:01.174Z,17.23
2022-09-24T20:57:28.808Z,17.77
2022-09-24T20:59:56.252Z,17.52
2022-09-24T21:02:23.612Z,17.46
2022-09-24T21:04:50.171Z,17.29
2022-09-24T21:07:16.693Z,17.61
2022-09-24T21:09:43.168Z,17.54
2022-09-24T21:12:09.715Z,17.87
2022-09-24T21:14:36.247Z,17.90
2022-09-24T21:17:03.633Z,18.16
2022-09-24T21:19:32.382Z,17.60
2022-09-24T21:21:59.759Z,17.88
2022-09-24T21:24:31.287Z,17.83
2022-09-24T21:26:59.326Z,17.97
2022-09-24T21:29:26.059Z,18.16
2022-09-24T21:31:52.472Z,18.17
2022-09-24T21:34:20.899Z,18.23
2022-09-24T21:36:47.499Z,18.16
2022-09-24T21:39:14.431Z,18.28
2022-09-24T21:41:41.294Z,18.21
2022-09-24T21:44:10.110Z,18.00
2022-09-24T21:46:37.016Z,18.19
2022-09-24T21:49:06.161Z,18.06
2022-09-24T21:51:32.612Z,17.87
2022-09-24T21:54:04.237Z,18.06
2022-09-24T21:56:32.095Z,17.98
2022-09-24T21:58:58.876Z,18.14
2022-09-24T22:01:28.046Z,18.05
2022-09-24T22:03:56.244Z,17.96
2022-09-24T22:06:28.015Z,17.95
2022-09-24T22:08:57.749Z,18.11
2022-09-24T22:11:27.350Z,17.94
2022-09-24T22:13:55.128Z,18.16
2022-09-24T22:16:22.720Z,17.97
2022-09-24T22:18:49.227Z,18.14
2022-09-24T22:21:15.998Z,18.19
2022-09-24T22:23:42.523Z,18.15
2022-09-24T22:26:10.336Z,18.25
2022-09-24T22:28:37.962Z,18.13
2022-09-24T22:31:08.198Z,18.28
2022-09-24T22:33:54.060Z,18.13
2022-09-24T22:36:20.775Z,18.32
2022-09-24T22:38:50.046Z,18.07
2022-09-24T22:41:16.602Z,18.18
2022-09-24T22:43:43.540Z,18.02
2022-09-24T22:46:12.291Z,18.12
2022-09-24T22:48:39.799Z,18.01
2022-09-24T22:51:07.099Z,17.97
2022-09-24T22:53:35.144Z,18.06
2022-09-24T22:56:14.028Z,18.11
2022-09-24T22:58:42.045Z,17.86
2022-09-24T23:01:11.547Z,17.68
2022-09-24T23:03:38.126Z,17.77
2022-09-24T23:06:06.104Z,18.07
2022-09-24T23:08:33.871Z,17.75
2022-09-24T23:11:11.147Z,17.73
2022-09-24T23:13:38.730Z,17.93
2022-09-24T23:16:17.056Z,17.94
2022-09-24T23:18:45.544Z,17.89
2022-09-24T23:21:15.731Z,17.89
2022-09-24T23:23:46.584Z,18.03
2022-09-24T23:26:16.811Z,18.14
2022-09-24T23:28:44.975Z,18.18
2022-09-24T23:31:13.638Z,17.75
2022-09-24T23:33:41.351Z,17.89
2022-09-24T23:36:10.381Z,17.85
2022-09-24T23:38:37.433Z,18.04
2022-09-24T23:41:05.250Z,18.03
2022-09-24T23:43:31.826Z,17.98
2022-09-24T23:45:58.397Z,18.04
2022-09-24T23:48:25.209Z,18.06
2022-09-24T23:50:51.905Z,17.85
2022-09-24T23:53:19.091Z,17.93
2022-09-24T23:55:47.062Z,17.44
2022-09-24T23:58:15.670Z,17.84
